Time;durP1;ratioP1;P1;durP2;ratioP2;P2;SDS_P1;SDS_P2;PMS_P1;PMS_P2;Temp;Humidity;BMP_temperature;BMP_pressure;BME280_temperature;BME280_humidity;BME280_pressure;Samples;Min_cycle;Max_cycle;Signal;HPM_P1;HPM_P2
2022/07/25 00:00:31;;;;;;;0.20;0.20;;;22.50;99.90;;;;;;5065344;28;20072;-81
2022/07/25 00:02:56;;;;;;;0.20;0.20;;;22.20;99.90;;;;;;5082153;28;20444;-80
2022/07/25 00:05:22;;;;;;;0.10;0.10;;;22.60;99.90;;;;;;5064002;28;20040;-79
2022/07/25 00:07:49;;;;;;;0.20;0.20;;;22.20;99.90;;;;;;5064966;28;20872;-80
2022/07/25 00:10:15;;;;;;;0.20;0.20;;;22.40;99.90;;;;;;5072810;28;20056;-80
2022/07/25 00:12:41;;;;;;;0.20;0.20;;;22.20;99.90;;;;;;5067943;28;20047;-80
2022/07/25 00:15:07;;;;;;;0.20;0.20;;;22.30;99.90;;;;;;5079729;28;20045;-80
2022/07/25 00:17:33;;;;;;;0.20;0.20;;;22.20;99.90;;;;;;5077825;28;20052;-81
2022/07/25 00:19:59;;;;;;;0.20;0.20;;;22.30;99.90;;;;;;5070611;28;20101;-80
2022/07/25 00:22:25;;;;;;;0.10;0.10;;;22.60;99.90;;;;;;5070864;28;20554;-81
2022/07/25 00:24:50;;;;;;;0.20;0.20;;;22.50;99.90;;;;;;5063253;28;20041;-81
2022/07/25 00:27:16;;;;;;;0.30;0.30;;;22.50;99.90;;;;;;5084153;28;20481;-81
2022/07/25 00:29:42;;;;;;;0.40;0.38;;;22.40;99.90;;;;;;5076773;28;20048;-81
2022/07/25 00:32:07;;;;;;;0.38;0.38;;;22.40;99.90;;;;;;5051343;28;20051;-80
2022/07/25 00:34:33;;;;;;;0.30;0.30;;;22.20;99.90;;;;;;5077206;28;20044;-80
2022/07/25 00:36:59;;;;;;;0.15;0.15;;;22.20;99.90;;;;;;5055479;28;20036;-79
2022/07/25 00:39:24;;;;;;;0.10;0.10;;;22.00;99.90;;;;;;5076045;28;20117;-80
2022/07/25 00:41:50;;;;;;;0.10;0.10;;;22.20;99.90;;;;;;5076363;28;20122;-80
2022/07/25 00:44:30;;;;;;;0.20;0.20;;;22.00;99.90;;;;;;5096706;28;20041;-80
2022/07/25 00:46:57;;;;;;;0.10;0.10;;;22.00;99.90;;;;;;5074592;28;20165;-79
2022/07/25 00:49:24;;;;;;;0.10;0.10;;;22.10;99.90;;;;;;5063899;28;20048;-81
2022/07/25 00:51:51;;;;;;;0.20;0.20;;;21.80;99.90;;;;;;5082066;28;20059;-77
2022/07/25 00:54:17;;;;;;;0.30;0.30;;;21.90;99.90;;;;;;5073978;28;20075;-80
2022/07/25 00:56:43;;;;;;;0.10;0.10;;;21.70;99.90;;;;;;5078772;28;20437;-81
2022/07/25 00:59:09;;;;;;;0.20;0.20;;;21.60;99.90;;;;;;5075852;28;20080;-80
2022/07/25 01:01:36;;;;;;;0.20;0.20;;;21.60;99.90;;;;;;5084322;28;20063;-80
2022/07/25 01:04:03;;;;;;;0.15;0.15;;;21.60;99.90;;;;;;5081213;28;20051;-81
2022/07/25 01:06:29;;;;;;;0.10;0.10;;;21.70;99.90;;;;;;5083050;28;20488;-80
2022/07/25 01:08:55;;;;;;;0.20;0.20;;;21.90;99.90;;;;;;5067725;28;20044;-80
2022/07/25 01:11:21;;;;;;;0.50;0.50;;;21.50;99.90;;;;;;5062554;28;20051;-80
2022/07/25 01:13:47;;;;;;;0.20;0.20;;;22.00;99.90;;;;;;5067370;28;20048;-81
2022/07/25 01:16:13;;;;;;;0.20;0.20;;;21.40;99.90;;;;;;5098501;28;20044;-81
2022/07/25 01:18:39;;;;;;;0.20;0.20;;;21.60;99.90;;;;;;5075451;28;20136;-80
2022/07/25 01:21:06;;;;;;;0.22;0.22;;;21.40;99.90;;;;;;5098410;28;20040;-80
2022/07/25 01:23:31;;;;;;;0.30;0.30;;;21.40;99.90;;;;;;5064024;28;20047;-80
2022/07/25 01:25:57;;;;;;;0.20;0.20;;;21.20;99.90;;;;;;5087167;28;20556;-80
2022/07/25 01:28:23;;;;;;;0.20;0.20;;;21.20;99.90;;;;;;5078032;28;20040;-80
2022/07/25 01:30:48;;;;;;;0.20;0.20;;;21.20;99.90;;;;;;5102154;28;20048;-80
2022/07/25 01:33:16;;;;;;;0.28;0.28;;;21.10;99.90;;;;;;5076310;28;20051;-80
2022/07/25 01:35:43;;;;;;;0.20;0.20;;;20.90;99.90;;;;;;5088705;28;20075;-81
2022/07/25 01:38:08;;;;;;;0.20;0.20;;;21.00;99.90;;;;;;5064719;28;20425;-82
2022/07/25 01:40:34;;;;;;;0.30;0.30;;;21.20;99.90;;;;;;5076151;28;20165;-81
2022/07/25 01:43:00;;;;;;;0.20;0.20;;;21.20;99.90;;;;;;5077174;28;20050;-81
2022/07/25 01:45:26;;;;;;;0.20;0.20;;;20.80;99.90;;;;;;5092084;28;20047;-80
2022/07/25 01:47:51;;;;;;;0.10;0.10;;;20.70;99.90;;;;;;5087305;28;20041;-80
2022/07/25 01:50:17;;;;;;;0.22;0.22;;;20.90;99.90;;;;;;5086590;28;20130;-81
2022/07/25 01:52:43;;;;;;;;;;;21.00;99.90;;;;;;5082045;28;20043;-80
2022/07/25 01:55:09;;;;;;;0.38;0.38;;;20.70;99.90;;;;;;5059367;28;19920;-80
2022/07/25 01:57:35;;;;;;;0.20;0.20;;;20.80;99.90;;;;;;5063773;28;20040;-81
2022/07/25 02:00:05;;;;;;;0.10;0.10;;;20.60;99.90;;;;;;5078194;28;20405;-79
2022/07/25 02:02:31;;;;;;;0.15;0.15;;;20.50;99.90;;;;;;5074380;28;20068;-81
2022/07/25 02:04:57;;;;;;;0.20;0.20;;;20.70;99.90;;;;;;5059721;28;20603;-79
2022/07/25 02:07:22;;;;;;;0.20;0.20;;;20.80;99.90;;;;;;5080553;28;20072;-79
2022/07/25 02:09:48;;;;;;;0.17;0.17;;;20.70;99.90;;;;;;5078825;28;20094;-80
2022/07/25 02:12:14;;;;;;;0.20;0.20;;;20.70;99.90;;;;;;5104171;28;20052;-79
2022/07/25 02:14:39;;;;;;;0.30;0.30;;;20.50;99.90;;;;;;5090599;28;20083;-79
2022/07/25 02:17:05;;;;;;;0.43;0.43;;;20.50;99.90;;;;;;5071376;28;20057;-81
2022/07/25 02:19:31;;;;;;;0.20;0.20;;;20.60;99.90;;;;;;5074352;28;20136;-79
2022/07/25 02:21:57;;;;;;;0.20;0.20;;;20.90;99.90;;;;;;5080627;28;20887;-81
2022/07/25 02:24:22;;;;;;;0.38;0.38;;;20.80;99.90;;;;;;5091481;28;20178;-79
2022/07/25 02:26:48;;;;;;;0.65;0.65;;;21.10;99.90;;;;;;5065190;28;20044;-79
2022/07/25 02:29:14;;;;;;;0.55;0.55;;;21.10;99.90;;;;;;5077990;28;20043;-80
2022/07/25 02:31:42;;;;;;;0.22;0.22;;;20.90;99.90;;;;;;5070145;28;20500;-82
2022/07/25 02:34:08;;;;;;;0.20;0.20;;;21.00;99.90;;;;;;5076314;28;20048;-80
2022/07/25 02:36:33;;;;;;;0.55;0.30;;;20.90;99.90;;;;;;5082090;28;20036;-79
2022/07/25 02:38:59;;;;;;;0.57;0.57;;;21.00;99.90;;;;;;5067829;28;20121;-79
2022/07/25 02:41:25;;;;;;;;;;;21.20;99.90;;;;;;5079054;28;20048;-80
2022/07/25 02:43:50;;;;;;;0.20;0.20;;;21.30;99.90;;;;;;5072114;28;19923;-78
2022/07/25 02:46:16;;;;;;;0.32;0.32;;;21.20;99.90;;;;;;5054865;28;20040;-80
2022/07/25 02:48:42;;;;;;;0.22;0.22;;;21.40;99.90;;;;;;5079410;28;20413;-80
2022/07/25 02:51:07;;;;;;;0.47;0.47;;;21.30;99.90;;;;;;5058438;28;20053;-82
2022/07/25 02:53:33;;;;;;;0.30;0.30;;;21.20;99.90;;;;;;5076756;28;20119;-80
2022/07/25 02:55:59;;;;;;;1.45;1.15;;;21.20;99.90;;;;;;5082698;28;20380;-80
2022/07/25 02:58:24;;;;;;;;;;;21.00;99.90;;;;;;5077512;28;20135;-79
2022/07/25 03:00:50;;;;;;;0.93;0.70;;;21.20;99.90;;;;;;5075047;28;19927;-81
2022/07/25 03:03:16;;;;;;;0.45;0.45;;;21.20;99.90;;;;;;5077627;28;20166;-80
2022/07/25 03:05:41;;;;;;;0.32;0.32;;;21.20;99.90;;;;;;5072380;28;20041;-79
2022/07/25 03:08:07;;;;;;;;;;;21.30;99.90;;;;;;5045340;28;20044;-79
2022/07/25 03:10:33;;;;;;;0.30;0.30;;;21.40;99.90;;;;;;5074120;28;19928;-79
2022/07/25 03:12:58;;;;;;;0.20;0.20;;;21.20;99.90;;;;;;5070703;28;20449;-80
2022/07/25 03:15:24;;;;;;;1.00;0.40;;;21.30;99.90;;;;;;5061492;28;20048;-79
2022/07/25 03:17:50;;;;;;;0.60;0.60;;;20.90;99.90;;;;;;5074693;28;20044;-80
2022/07/25 03:20:16;;;;;;;0.20;0.20;;;20.90;99.90;;;;;;5092402;28;20053;-79
2022/07/25 03:22:41;;;;;;;0.38;0.38;;;20.80;99.90;;;;;;5078414;28;20385;-80
2022/07/25 03:25:07;;;;;;;0.20;0.20;;;20.60;99.90;;;;;;5082326;28;20046;-81
2022/07/25 03:27:33;;;;;;;;;;;20.60;99.90;;;;;;5081627;28;20063;-80
2022/07/25 03:29:59;;;;;;;0.20;0.20;;;20.70;99.90;;;;;;5082500;28;19954;-80
2022/07/25 03:32:24;;;;;;;;;;;20.40;99.90;;;;;;5075500;28;20106;-81
2022/07/25 03:34:50;;;;;;;0.38;0.38;;;20.40;99.90;;;;;;5072316;28;19924;-80
2022/07/25 03:37:15;;;;;;;0.20;0.20;;;20.60;99.90;;;;;;5071891;28;20040;-80
2022/07/25 03:39:41;;;;;;;0.10;0.10;;;20.40;99.90;;;;;;5072803;28;20040;-80
2022/07/25 03:42:07;;;;;;;0.13;0.13;;;20.60;99.90;;;;;;5083815;28;20036;-81
2022/07/25 03:44:33;;;;;;;0.10;0.10;;;20.50;99.90;;;;;;5079079;28;20055;-79
2022/07/25 03:46:58;;;;;;;0.40;0.40;;;20.20;99.90;;;;;;5077432;28;20048;-80
2022/07/25 03:49:24;;;;;;;0.30;0.30;;;20.20;99.90;;;;;;5089178;28;20534;-79
2022/07/25 03:51:49;;;;;;;;;;;20.10;99.90;;;;;;5076772;28;20059;-81
2022/07/25 03:54:15;;;;;;;0.20;0.20;;;20.20;99.90;;;;;;5076989;28;19970;-81
2022/07/25 03:56:42;;;;;;;;;;;20.40;99.90;;;;;;5079953;28;20056;-80
2022/07/25 03:59:10;;;;;;;0.20;0.20;;;20.40;99.90;;;;;;5072388;28;19978;-81
2022/07/25 04:01:36;;;;;;;0.95;0.60;;;20.30;99.90;;;;;;5082419;28;20558;-79
2022/07/25 04:04:02;;;;;;;0.20;0.20;;;20.30;99.90;;;;;;5079338;28;20158;-79
2022/07/25 04:06:28;;;;;;;0.20;0.20;;;20.30;99.90;;;;;;5081903;28;20028;-80
2022/07/25 04:08:54;;;;;;;0.57;0.57;;;20.40;99.90;;;;;;5076067;28;20385;-79
2022/07/25 04:11:21;;;;;;;0.10;0.10;;;20.40;99.90;;;;;;5079960;28;20029;-79
2022/07/25 04:13:47;;;;;;;0.22;0.22;;;20.50;99.90;;;;;;5068230;28;20484;-80
2022/07/25 04:16:13;;;;;;;0.20;0.20;;;20.50;99.90;;;;;;5075113;28;20059;-79
2022/07/25 04:18:38;;;;;;;0.20;0.20;;;20.80;99.90;;;;;;5076345;28;20635;-81
2022/07/25 04:21:04;;;;;;;0.20;0.20;;;20.60;99.90;;;;;;5067331;28;20048;-81
2022/07/25 04:23:30;;;;;;;1.00;1.00;;;20.60;99.90;;;;;;5077194;28;20036;-80
2022/07/25 04:25:57;;;;;;;0.75;0.30;;;20.90;99.90;;;;;;5059063;28;20087;-81
2022/07/25 04:28:26;;;;;;;0.45;0.45;;;21.00;99.90;;;;;;5078788;28;20476;-78
2022/07/25 04:30:52;;;;;;;0.10;0.10;;;20.90;99.90;;;;;;5080104;28;20051;-78
2022/07/25 04:33:18;;;;;;;0.10;0.10;;;21.20;99.90;;;;;;5081412;28;20130;-82
2022/07/25 04:35:44;;;;;;;0.32;0.32;;;21.10;99.90;;;;;;5086828;28;20097;-80
2022/07/25 04:38:10;;;;;;;0.20;0.20;;;21.00;99.90;;;;;;5078179;28;20059;-81
2022/07/25 04:40:37;;;;;;;0.32;0.32;;;21.00;99.90;;;;;;5071920;28;20043;-81
2022/07/25 04:43:03;;;;;;;0.30;0.30;;;21.10;99.90;;;;;;5083229;28;20074;-80
2022/07/25 04:45:30;;;;;;;0.40;0.40;;;21.20;99.90;;;;;;5080514;28;20105;-78
2022/07/25 04:47:55;;;;;;;0.30;0.30;;;21.40;99.90;;;;;;5081748;28;20115;-77
2022/07/25 04:50:21;;;;;;;0.35;0.35;;;21.50;99.90;;;;;;5078073;28;20131;-79
2022/07/25 04:52:47;;;;;;;0.52;0.40;;;21.40;99.90;;;;;;5074445;28;20059;-80
2022/07/25 04:55:13;;;;;;;0.43;0.43;;;21.50;99.90;;;;;;5079211;28;20059;-80
2022/07/25 04:57:39;;;;;;;0.40;0.40;;;21.70;99.90;;;;;;5082247;28;20047;-79
2022/07/25 05:00:07;;;;;;;0.43;0.43;;;21.60;99.90;;;;;;5082598;28;20480;-78
2022/07/25 05:02:33;;;;;;;0.30;0.30;;;21.70;99.90;;;;;;5066000;28;20044;-80
2022/07/25 05:04:59;;;;;;;0.50;0.50;;;21.80;99.90;;;;;;5076159;28;20515;-79
2022/07/25 05:07:25;;;;;;;0.32;0.30;;;21.90;99.90;;;;;;5086541;28;20160;-79
2022/07/25 05:09:51;;;;;;;0.60;0.60;;;21.90;99.90;;;;;;5082848;28;20096;-79
2022/07/25 05:12:16;;;;;;;0.75;0.75;;;21.80;99.90;;;;;;5062979;28;20379;-78
2022/07/25 05:14:42;;;;;;;0.50;0.50;;;21.90;99.90;;;;;;5085795;28;20094;-79
2022/07/25 05:17:08;;;;;;;0.28;0.28;;;22.00;99.90;;;;;;5077726;28;20520;-78
2022/07/25 05:19:34;;;;;;;0.20;0.20;;;22.00;99.90;;;;;;5085834;28;20131;-80
2022/07/25 05:22:00;;;;;;;0.20;0.20;;;22.00;99.90;;;;;;5079679;28;20479;-80
2022/07/25 05:24:25;;;;;;;0.80;0.77;;;22.10;99.90;;;;;;5085811;28;20044;-79
2022/07/25 05:26:51;;;;;;;0.65;0.65;;;22.20;99.90;;;;;;5077884;28;20064;-80
2022/07/25 05:29:17;;;;;;;0.50;0.50;;;22.20;99.90;;;;;;5087072;28;20213;-80
2022/07/25 05:31:42;;;;;;;0.50;0.50;;;22.30;99.90;;;;;;5075584;28;20086;-80
2022/07/25 05:34:08;;;;;;;0.20;0.20;;;22.50;99.90;;;;;;5067165;28;20500;-82
2022/07/25 05:36:34;;;;;;;0.77;0.60;;;22.50;99.90;;;;;;5081217;28;20177;-80
2022/07/25 05:39:03;;;;;;;0.35;0.35;;;22.50;99.90;;;;;;5080113;28;20045;-79
2022/07/25 05:41:29;;;;;;;0.47;0.47;;;22.40;99.90;;;;;;5078569;28;20081;-79
2022/07/25 05:43:54;;;;;;;5.85;0.88;;;22.50;99.90;;;;;;5083974;28;20532;-84
2022/07/25 05:46:20;;;;;;;0.20;0.20;;;22.40;99.90;;;;;;5050960;28;20039;-79
2022/07/25 05:48:46;;;;;;;0.60;0.60;;;22.50;99.90;;;;;;5079028;28;20402;-81
2022/07/25 05:51:11;;;;;;;0.90;0.90;;;22.60;99.90;;;;;;5082895;28;20140;-81
2022/07/25 05:53:37;;;;;;;1.00;1.00;;;22.50;99.90;;;;;;5077022;28;20055;-84
2022/07/25 05:56:04;;;;;;;1.02;1.02;;;22.70;99.90;;;;;;5059818;28;20048;-83
2022/07/25 05:58:30;;;;;;;0.52;0.52;;;22.70;99.90;;;;;;5059987;28;20075;-80
2022/07/25 06:00:56;;;;;;;1.75;1.65;;;22.70;99.90;;;;;;5086332;28;20121;-80
2022/07/25 06:03:22;;;;;;;1.45;1.35;;;22.50;99.90;;;;;;5080149;28;20040;-76
2022/07/25 06:05:48;;;;;;;1.73;1.13;;;22.70;99.90;;;;;;5082239;28;20471;-78
2022/07/25 06:08:14;;;;;;;0.68;0.63;;;22.80;99.90;;;;;;5093140;28;20066;-79
2022/07/25 06:10:41;;;;;;;0.47;0.47;;;22.80;99.90;;;;;;5089987;28;20040;-81
2022/07/25 06:13:07;;;;;;;1.10;0.93;;;22.80;99.90;;;;;;5083328;28;20439;-75
2022/07/25 06:15:33;;;;;;;1.90;0.80;;;22.70;99.90;;;;;;5095720;28;20044;-79
2022/07/25 06:17:59;;;;;;;1.67;1.25;;;22.90;99.90;;;;;;5086673;28;20083;-76
2022/07/25 06:20:25;;;;;;;1.75;0.60;;;22.80;99.90;;;;;;5092261;28;20075;-76
2022/07/25 06:22:50;;;;;;;0.50;0.50;;;22.80;99.90;;;;;;5089788;28;20055;-79
2022/07/25 06:25:16;;;;;;;0.45;0.45;;;23.10;99.90;;;;;;5052945;28;20047;-78
2022/07/25 06:27:42;;;;;;;1.42;0.88;;;23.00;99.90;;;;;;5083903;28;20040;-82
2022/07/25 06:30:09;;;;;;;2.05;1.00;;;23.20;99.90;;;;;;5072937;28;20040;-83
2022/07/25 06:32:35;;;;;;;0.65;0.65;;;23.30;99.90;;;;;;5061267;28;20044;-82
2022/07/25 06:35:01;;;;;;;1.20;1.10;;;23.40;99.90;;;;;;5078833;28;20052;-86
2022/07/25 06:37:26;;;;;;;0.30;0.20;;;23.50;99.90;;;;;;5054225;28;20121;-79
2022/07/25 06:39:52;;;;;;;0.73;0.73;;;23.60;99.90;;;;;;5078333;28;20324;-84
2022/07/25 06:42:18;;;;;;;1.65;0.75;;;23.50;99.90;;;;;;5073827;28;20059;-80
2022/07/25 06:44:45;;;;;;;1.05;0.95;;;23.90;99.90;;;;;;5086214;28;20039;-82
2022/07/25 06:47:11;;;;;;;0.20;0.20;;;24.00;99.90;;;;;;5060479;28;20122;-80
2022/07/25 06:49:45;;;;;;;0.55;0.55;;;23.80;99.90;;;;;;5062860;28;20040;-83
2022/07/25 06:52:10;;;;;;;1.92;0.95;;;24.60;99.90;;;;;;5073239;28;20056;-78
2022/07/25 06:54:36;;;;;;;1.20;1.10;;;24.80;99.90;;;;;;5075444;28;20044;-79
2022/07/25 06:57:07;;;;;;;0.63;0.63;;;24.80;99.90;;;;;;5064020;28;20535;-82
2022/07/25 06:59:59;;;;;;;1.30;1.20;;;24.60;99.90;;;;;;5060317;28;20138;-82
2022/07/25 07:02:45;;;;;;;0.47;0.47;;;24.30;99.90;;;;;;5073175;28;20068;-82
2022/07/25 07:05:13;;;;;;;4.07;1.58;;;24.80;99.90;;;;;;5060406;28;20040;-79
2022/07/25 07:07:39;;;;;;;0.70;0.63;;;25.00;99.90;;;;;;5077979;28;20040;-77
2022/07/25 07:10:06;;;;;;;1.13;1.02;;;24.60;99.90;;;;;;5086256;28;20126;-82
2022/07/25 07:12:44;;;;;;;0.93;0.82;;;24.30;99.90;;;;;;5060770;28;20051;-82
2022/07/25 07:15:22;;;;;;;0.68;0.50;;;25.10;99.90;;;;;;5093513;28;20082;-85
2022/07/25 07:18:33;;;;;;;;;;;;;;;;;;;;;
2022/07/25 07:21:34;;;;;;;3.47;1.15;;;22.40;99.90;;;;;;5084090;28;20051;-84
2022/07/25 07:24:00;;;;;;;1.63;1.52;;;24.70;99.90;;;;;;5048605;28;20048;-81
2022/07/25 07:26:25;;;;;;;0.77;0.77;;;25.10;99.90;;;;;;5062147;28;20719;-83
2022/07/25 07:28:54;;;;;;;1.33;0.93;;;24.10;99.90;;;;;;5060574;28;20044;-82
2022/07/25 07:31:20;;;;;;;0.98;0.98;;;24.50;99.90;;;;;;5053440;28;20044;-81
2022/07/25 07:33:46;;;;;;;1.27;1.05;;;24.70;99.90;;;;;;5079409;28;20044;-83
2022/07/25 07:36:12;;;;;;;1.92;1.83;;;24.70;99.90;;;;;;5045270;28;20112;-82
2022/07/25 07:38:38;;;;;;;0.32;0.32;;;24.60;99.90;;;;;;5054377;28;20097;-81
2022/07/25 07:41:04;;;;;;;1.20;1.02;;;24.80;99.90;;;;;;5081748;28;20073;-81
2022/07/25 07:43:30;;;;;;;2.42;2.13;;;24.80;99.90;;;;;;5056101;28;20398;-83
2022/07/25 07:45:59;;;;;;;0.73;0.55;;;24.70;99.90;;;;;;5038592;28;20037;-82
2022/07/25 07:48:28;;;;;;;1.13;0.90;;;24.70;99.90;;;;;;5038742;28;20123;-89
2022/07/25 07:50:54;;;;;;;1.15;0.82;;;24.70;99.90;;;;;;5054628;28;20064;-86
2022/07/25 07:53:19;;;;;;;0.55;0.50;;;24.70;99.90;;;;;;5086826;28;20085;-81
2022/07/25 07:55:47;;;;;;;1.55;1.45;;;24.70;99.90;;;;;;5093000;28;20032;-84
2022/07/25 07:58:18;;;;;;;1.02;0.75;;;24.80;99.90;;;;;;5075235;28;20040;-86
2022/07/25 08:00:46;;;;;;;0.95;0.85;;;24.80;99.90;;;;;;5043693;28;20878;-82
2022/07/25 08:03:12;;;;;;;0.32;0.30;;;24.90;99.90;;;;;;5058828;28;20347;-82
2022/07/25 08:06:06;;;;;;;0.40;0.40;;;24.90;99.90;;;;;;5075194;28;20040;-82
2022/07/25 08:08:38;;;;;;;0.80;0.80;;;25.30;99.90;;;;;;5075502;28;20051;-84
2022/07/25 08:11:07;;;;;;;0.50;0.50;;;25.10;99.90;;;;;;5043171;28;20397;-83
2022/07/25 08:13:37;;;;;;;0.28;0.28;;;23.70;99.90;;;;;;5057075;28;20044;-85
2022/07/25 08:16:06;;;;;;;0.80;0.80;;;24.70;99.90;;;;;;5061864;28;20040;-81
2022/07/25 08:18:39;;;;;;;0.30;0.30;;;25.50;99.90;;;;;;5090941;28;20592;-85
2022/07/25 08:21:08;;;;;;;1.10;1.00;;;25.90;99.90;;;;;;5051284;28;20125;-82
2022/07/25 08:23:37;;;;;;;0.50;0.50;;;27.10;99.90;;;;;;5058871;28;20083;-84
2022/07/25 08:26:06;;;;;;;0.45;0.45;;;26.60;99.90;;;;;;5074886;28;20044;-85
2022/07/25 08:28:32;;;;;;;0.28;0.28;;;26.20;99.90;;;;;;5054582;28;20582;-82
2022/07/25 08:30:58;;;;;;;1.20;0.95;;;26.00;99.90;;;;;;5057353;28;20048;-83
2022/07/25 08:33:25;;;;;;;1.63;0.55;;;25.90;99.90;;;;;;5063230;28;20051;-82
2022/07/25 08:35:53;;;;;;;0.70;0.63;;;26.80;99.90;;;;;;5067313;28;20048;-81
2022/07/25 08:38:24;;;;;;;1.38;0.98;;;25.40;99.90;;;;;;5080420;28;20025;-82
2022/07/25 08:40:51;;;;;;;0.30;0.30;;;25.70;99.90;;;;;;5092263;28;20036;-83
2022/07/25 08:43:17;;;;;;;0.50;0.50;;;25.10;99.90;;;;;;5083610;28;20046;-79
2022/07/25 08:45:48;;;;;;;1.90;1.05;;;24.90;99.90;;;;;;5091387;28;20047;-83
2022/07/25 08:48:17;;;;;;;0.32;0.32;;;24.60;99.90;;;;;;5070001;28;20043;-84
2022/07/25 08:50:49;;;;;;;0.50;0.50;;;24.50;99.90;;;;;;5078676;28;20446;-81
2022/07/25 08:53:18;;;;;;;0.43;0.43;;;24.40;99.90;;;;;;5080497;28;20043;-79
2022/07/25 08:55:44;;;;;;;0.40;0.40;;;24.20;99.90;;;;;;5071185;28;20040;-83
2022/07/25 08:58:11;;;;;;;0.28;0.28;;;24.20;99.90;;;;;;5075762;28;20511;-82
2022/07/25 09:00:37;;;;;;;0.55;0.50;;;24.20;99.90;;;;;;5090833;28;20066;-83
2022/07/25 09:03:07;;;;;;;0.70;0.60;;;24.20;99.90;;;;;;5085384;28;20048;-82
2022/07/25 09:05:34;;;;;;;0.90;0.60;;;24.20;99.90;;;;;;5082401;28;20392;-83
2022/07/25 09:08:16;;;;;;;1.13;0.40;;;24.30;99.90;;;;;;5086246;28;20070;-84
2022/07/25 09:10:52;;;;;;;0.98;0.80;;;24.40;99.90;;;;;;5075066;28;20048;-80
2022/07/25 09:13:20;;;;;;;0.50;0.50;;;24.50;99.90;;;;;;5087717;28;20116;-80
2022/07/25 09:15:52;;;;;;;1.17;1.17;;;24.60;99.90;;;;;;5087926;28;20044;-81
2022/07/25 09:18:22;;;;;;;0.57;0.57;;;24.60;99.90;;;;;;5088387;28;20043;-83
2022/07/25 09:20:57;;;;;;;0.50;0.50;;;24.50;99.90;;;;;;5087758;28;20131;-82
2022/07/25 09:23:33;;;;;;;0.30;0.30;;;24.60;99.90;;;;;;5082416;28;20071;-80
2022/07/25 09:26:07;;;;;;;0.40;0.40;;;24.70;99.90;;;;;;5066280;28;20048;-80
2022/07/25 09:28:41;;;;;;;1.92;0.77;;;24.40;99.90;;;;;;5086423;28;20055;-80
2022/07/25 09:31:08;;;;;;;0.50;0.50;;;24.40;99.90;;;;;;5065725;28;20040;-85
2022/07/25 09:33:43;;;;;;;0.30;0.30;;;24.60;99.90;;;;;;5078701;28;20056;-80
2022/07/25 09:36:10;;;;;;;0.35;0.30;;;24.80;99.90;;;;;;5079178;28;20040;-83
2022/07/25 09:38:37;;;;;;;0.20;0.20;;;24.60;99.90;;;;;;5075039;28;20119;-80
2022/07/25 09:41:02;;;;;;;0.20;0.20;;;24.80;99.90;;;;;;5075574;28;20374;-81
2022/07/25 09:43:40;;;;;;;0.30;0.30;;;25.10;99.90;;;;;;5089675;28;20052;-79
2022/07/25 09:46:07;;;;;;;0.60;0.57;;;25.20;99.90;;;;;;5074873;28;20044;-81
2022/07/25 09:48:34;;;;;;;0.50;0.50;;;25.10;99.90;;;;;;5073341;28;20045;-81
2022/07/25 09:51:00;;;;;;;0.75;0.65;;;25.20;99.90;;;;;;5075882;28;20032;-82
2022/07/25 09:53:26;;;;;;;0.40;0.40;;;25.20;99.90;;;;;;5043073;28;20119;-85
2022/07/25 09:55:53;;;;;;;0.20;0.20;;;25.30;99.90;;;;;;5080610;28;20067;-83
2022/07/25 09:58:20;;;;;;;0.30;0.30;;;25.40;99.90;;;;;;5081682;28;20048;-82
2022/07/25 10:00:46;;;;;;;0.40;0.40;;;25.50;99.90;;;;;;5074019;28;20097;-84
2022/07/25 10:03:16;;;;;;;1.67;1.20;;;25.50;99.90;;;;;;5060059;28;20044;-79
2022/07/25 10:05:55;;;;;;;1.15;0.85;;;25.40;99.90;;;;;;5061002;28;20111;-80
2022/07/25 10:08:22;;;;;;;0.52;0.52;;;25.40;99.90;;;;;;5069989;28;20037;-79
2022/07/25 10:10:48;;;;;;;0.30;0.30;;;25.40;99.90;;;;;;5080541;28;20112;-80
2022/07/25 10:13:16;;;;;;;0.20;0.20;;;25.40;99.90;;;;;;5046350;28;20108;-80
2022/07/25 10:15:48;;;;;;;0.22;0.22;;;25.30;99.90;;;;;;5055359;28;20051;-83
2022/07/25 10:18:16;;;;;;;0.10;0.10;;;25.40;99.90;;;;;;5089145;28;20054;-83
2022/07/25 10:20:44;;;;;;;0.45;0.45;;;25.30;99.90;;;;;;5084845;28;20055;-82
2022/07/25 10:23:20;;;;;;;0.15;0.15;;;25.20;99.90;;;;;;5077829;28;22351;-79
2022/07/25 10:25:46;;;;;;;0.20;0.20;;;25.00;99.90;;;;;;5078856;28;20040;-80
2022/07/25 10:28:17;;;;;;;0.45;0.30;;;24.90;99.90;;;;;;5077781;28;20127;-81
2022/07/25 10:30:42;;;;;;;0.25;0.25;;;24.80;99.90;;;;;;5080928;28;20086;-79
2022/07/25 10:33:14;;;;;;;0.93;0.68;;;24.50;99.90;;;;;;5088863;28;20033;-80
2022/07/25 10:35:40;;;;;;;0.30;0.30;;;24.20;99.90;;;;;;5078473;28;20048;-87
2022/07/25 10:38:05;;;;;;;0.20;0.20;;;24.00;99.90;;;;;;5077799;28;20382;-84
2022/07/25 10:40:42;;;;;;;3.45;0.47;;;24.00;99.90;;;;;;5071260;28;20036;-80
2022/07/25 10:43:19;;;;;;;0.32;0.32;;;23.60;99.90;;;;;;5071169;28;20044;-79
2022/07/25 10:45:57;;;;;;;1.27;0.75;;;23.40;99.90;;;;;;5077150;28;20087;-81
2022/07/25 10:48:31;;;;;;;0.30;0.30;;;23.10;99.90;;;;;;5059754;28;20041;-83
2022/07/25 10:50:57;;;;;;;0.20;0.20;;;23.10;99.90;;;;;;5056376;28;20427;-82
2022/07/25 10:53:32;;;;;;;0.60;0.60;;;22.80;99.90;;;;;;5076909;28;20063;-84
2022/07/25 10:56:16;;;;;;;0.30;0.30;;;22.60;99.90;;;;;;5071561;28;20116;-83
2022/07/25 10:58:53;;;;;;;0.50;0.50;;;22.70;99.90;;;;;;5073141;28;20394;-83
2022/07/25 11:01:30;;;;;;;0.30;0.30;;;22.90;99.90;;;;;;5073277;28;20081;-82
2022/07/25 11:04:01;;;;;;;0.57;0.57;;;22.80;99.90;;;;;;5080193;28;20386;-81
2022/07/25 11:06:33;;;;;;;2.67;0.73;;;23.30;99.90;;;;;;5065540;28;20044;-78
2022/07/25 11:09:00;;;;;;;0.30;0.30;;;23.50;99.90;;;;;;5063567;28;20040;-81
2022/07/25 11:11:37;;;;;;;0.30;0.30;;;24.00;99.90;;;;;;5092074;28;20050;-81
2022/07/25 11:14:04;;;;;;;4.28;0.40;;;24.10;99.90;;;;;;5082879;28;20134;-78
2022/07/25 11:16:29;;;;;;;1.55;0.63;;;24.20;99.90;;;;;;5071631;28;20042;-79
2022/07/25 11:18:55;;;;;;;0.28;0.28;;;24.20;99.90;;;;;;5057535;28;20044;-80
2022/07/25 11:21:21;;;;;;;0.20;0.20;;;24.20;99.90;;;;;;5067335;28;20044;-82
2022/07/25 11:23:51;;;;;;;0.30;0.30;;;24.00;99.90;;;;;;5058987;28;20044;-78
2022/07/25 11:26:17;;;;;;;0.52;0.50;;;23.80;99.90;;;;;;5086473;28;20040;-80
2022/07/25 11:28:45;;;;;;;0.40;0.40;;;23.90;99.90;;;;;;5062696;28;20123;-79
2022/07/25 11:31:13;;;;;;;0.30;0.30;;;24.00;99.90;;;;;;5079489;28;20466;-80
2022/07/25 11:33:40;;;;;;;0.40;0.40;;;24.10;99.90;;;;;;5063625;28;20048;-81
2022/07/25 11:36:08;;;;;;;0.60;0.60;;;23.20;99.90;;;;;;5072075;28;20412;-83
2022/07/25 11:38:34;;;;;;;0.38;0.20;;;24.30;99.90;;;;;;5095075;28;20493;-80
2022/07/25 11:41:00;;;;;;;0.50;0.50;;;24.80;99.90;;;;;;5086794;28;20478;-80
2022/07/25 11:43:26;;;;;;;1.52;1.25;;;24.90;99.90;;;;;;5083732;28;20039;-79
2022/07/25 11:46:06;;;;;;;0.17;0.17;;;25.10;99.90;;;;;;5086588;28;20097;-80
2022/07/25 11:48:38;;;;;;;0.63;0.63;;;25.10;99.90;;;;;;5071816;28;20377;-80
2022/07/25 11:51:21;;;;;;;0.73;0.73;;;25.20;99.90;;;;;;5059567;28;20493;-81
2022/07/25 11:53:49;;;;;;;0.57;0.57;;;25.10;99.90;;;;;;5079766;28;20048;-79
2022/07/25 11:56:20;;;;;;;0.20;0.20;;;24.90;99.90;;;;;;5091808;28;20505;-78
2022/07/25 11:58:57;;;;;;;0.43;0.43;;;24.80;99.90;;;;;;5081604;28;20052;-82
2022/07/25 12:01:24;;;;;;;0.30;0.30;;;24.20;99.90;;;;;;5082210;28;20185;-79
2022/07/25 12:03:50;;;;;;;0.35;0.35;;;24.40;99.90;;;;;;5082524;28;20075;-84
2022/07/25 12:06:16;;;;;;;0.20;0.20;;;24.20;99.90;;;;;;5098393;28;20035;-81
2022/07/25 12:08:42;;;;;;;0.38;0.20;;;24.40;99.90;;;;;;5056867;28;20543;-82
2022/07/25 12:11:21;;;;;;;2.38;1.58;;;24.50;99.90;;;;;;5058762;28;20124;-81
2022/07/25 12:13:47;;;;;;;1.00;1.00;;;24.50;99.90;;;;;;5087151;28;20041;-77
2022/07/25 12:16:14;;;;;;;1.17;1.17;;;24.60;99.90;;;;;;5082255;28;20083;-78
2022/07/25 12:18:40;;;;;;;0.75;0.75;;;24.50;99.90;;;;;;5061181;28;20055;-79
2022/07/25 12:21:05;;;;;;;0.60;0.60;;;24.70;99.90;;;;;;5071199;28;20052;-82
2022/07/25 12:23:32;;;;;;;0.30;0.30;;;24.50;99.90;;;;;;5078931;28;20564;-80
2022/07/25 12:25:57;;;;;;;0.40;0.40;;;24.50;99.90;;;;;;5079536;28;20064;-81
2022/07/25 12:28:23;;;;;;;0.30;0.30;;;24.60;99.90;;;;;;5088596;28;20367;-78
2022/07/25 12:30:49;;;;;;;0.30;0.30;;;24.70;99.90;;;;;;5071003;28;20504;-79
2022/07/25 12:33:16;;;;;;;0.50;0.50;;;24.50;99.90;;;;;;5083084;28;20079;-84
2022/07/25 12:35:43;;;;;;;0.30;0.30;;;24.60;99.90;;;;;;5071156;28;20044;-77
2022/07/25 12:38:10;;;;;;;0.40;0.40;;;24.60;99.90;;;;;;5086067;28;20036;-78
2022/07/25 12:40:36;;;;;;;0.30;0.30;;;24.50;99.90;;;;;;5086860;28;20044;-79
2022/07/25 12:43:03;;;;;;;1.33;0.75;;;24.30;99.90;;;;;;5074766;28;20094;-79
2022/07/25 12:45:29;;;;;;;0.17;0.17;;;24.20;99.90;;;;;;5083142;28;20432;-78
2022/07/25 12:47:55;;;;;;;0.20;0.20;;;24.00;99.90;;;;;;5081325;28;20040;-77
2022/07/25 12:50:21;;;;;;;0.25;0.25;;;23.90;99.90;;;;;;5058444;28;20048;-78
2022/07/25 12:52:46;;;;;;;0.20;0.20;;;24.10;99.90;;;;;;5061937;28;20040;-83